sensor_id;sensor_type;location;lat;lon;timestamp;P1;durP1;ratioP1;P2;durP2;ratioP2
46745;SDS011;32493;50.514;9.678;2023-11-19T00:00:53;0.80;;;0.43;;
46745;SDS011;32493;50.514;9.678;2023-11-19T00:03:02;0.68;;;0.45;;
46745;SDS011;32493;50.514;9.678;2023-11-19T00:05:17;0.70;;;0.40;;
46745;SDS011;32493;50.514;9.678;2023-11-19T00:07:25;0.40;;;0.30;;
46745;SDS011;32493;50.514;9.678;2023-11-19T00:09:36;0.30;;;0.22;;
46745;SDS011;32493;50.514;9.678;2023-11-19T00:11:47;1.15;;;0.50;;
46745;SDS011;32493;50.514;9.678;2023-11-19T00:14:04;0.35;;;0.35;;
46745;SDS011;32493;50.514;9.678;2023-11-19T00:16:12;1.63;;;0.50;;
46745;SDS011;32493;50.514;9.678;2023-11-19T00:18:29;0.80;;;0.50;;
46745;SDS011;32493;50.514;9.678;2023-11-19T00:20:45;1.33;;;0.50;;
46745;SDS011;32493;50.514;9.678;2023-11-19T00:22:51;4.20;;;0.60;;
46745;SDS011;32493;50.514;9.678;2023-11-19T00:24:57;0.68;;;0.50;;
46745;SDS011;32493;50.514;9.678;2023-11-19T00:27:02;1.50;;;0.50;;
46745;SDS011;32493;50.514;9.678;2023-11-19T00:29:14;0.90;;;0.60;;
46745;SDS011;32493;50.514;9.678;2023-11-19T00:31:24;2.20;;;0.60;;
46745;SDS011;32493;50.514;9.678;2023-11-19T00:33:32;0.70;;;0.50;;
46745;SDS011;32493;50.514;9.678;2023-11-19T00:35:50;1.38;;;0.60;;
46745;SDS011;32493;50.514;9.678;2023-11-19T00:37:57;0.60;;;0.40;;
46745;SDS011;32493;50.514;9.678;2023-11-19T00:40:03;0.60;;;0.60;;
46745;SDS011;32493;50.514;9.678;2023-11-19T00:42:07;0.55;;;0.40;;
46745;SDS011;32493;50.514;9.678;2023-11-19T00:44:29;1.00;;;0.55;;
46745;SDS011;32493;50.514;9.678;2023-11-19T00:46:34;0.88;;;0.50;;
46745;SDS011;32493;50.514;9.678;2023-11-19T00:48:40;1.20;;;0.70;;
46745;SDS011;32493;50.514;9.678;2023-11-19T00:50:46;1.05;;;0.70;;
46745;SDS011;32493;50.514;9.678;2023-11-19T00:52:49;0.90;;;0.70;;
46745;SDS011;32493;50.514;9.678;2023-11-19T00:55:01;0.68;;;0.57;;
46745;SDS011;32493;50.514;9.678;2023-11-19T00:57:04;0.70;;;0.60;;
46745;SDS011;32493;50.514;9.678;2023-11-19T00:59:10;2.63;;;0.95;;
46745;SDS011;32493;50.514;9.678;2023-11-19T01:01:22;1.00;;;0.60;;
46745;SDS011;32493;50.514;9.678;2023-11-19T01:03:30;0.95;;;0.80;;
46745;SDS011;32493;50.514;9.678;2023-11-19T01:05:36;0.88;;;0.60;;
46745;SDS011;32493;50.514;9.678;2023-11-19T01:07:42;0.95;;;0.85;;
46745;SDS011;32493;50.514;9.678;2023-11-19T01:09:49;0.98;;;0.88;;
46745;SDS011;32493;50.514;9.678;2023-11-19T01:11:56;2.13;;;0.80;;
46745;SDS011;32493;50.514;9.678;2023-11-19T01:14:06;0.93;;;0.73;;
46745;SDS011;32493;50.514;9.678;2023-11-19T01:16:25;1.25;;;0.90;;
46745;SDS011;32493;50.514;9.678;2023-11-19T01:18:32;2.13;;;1.08;;
46745;SDS011;32493;50.514;9.678;2023-11-19T01:20:38;1.40;;;1.08;;
46745;SDS011;32493;50.514;9.678;2023-11-19T01:22:49;2.95;;;1.10;;
46745;SDS011;32493;50.514;9.678;2023-11-19T01:24:55;2.35;;;1.13;;
46745;SDS011;32493;50.514;9.678;2023-11-19T01:27:02;1.52;;;1.10;;
46745;SDS011;32493;50.514;9.678;2023-11-19T01:29:13;1.27;;;1.05;;
46745;SDS011;32493;50.514;9.678;2023-11-19T01:31:22;1.50;;;1.08;;
46745;SDS011;32493;50.514;9.678;2023-11-19T01:33:32;1.65;;;1.33;;
46745;SDS011;32493;50.514;9.678;2023-11-19T01:35:38;1.50;;;1.20;;
46745;SDS011;32493;50.514;9.678;2023-11-19T01:37:44;1.98;;;1.30;;
46745;SDS011;32493;50.514;9.678;2023-11-19T01:39:50;2.78;;;1.60;;
46745;SDS011;32493;50.514;9.678;2023-11-19T01:42:00;2.88;;;1.67;;
46745;SDS011;32493;50.514;9.678;2023-11-19T01:44:08;2.55;;;1.38;;
46745;SDS011;32493;50.514;9.678;2023-11-19T01:46:14;1.80;;;1.40;;
46745;SDS011;32493;50.514;9.678;2023-11-19T01:48:24;3.00;;;1.63;;
46745;SDS011;32493;50.514;9.678;2023-11-19T01:50:35;2.95;;;1.23;;
46745;SDS011;32493;50.514;9.678;2023-11-19T01:52:44;1.98;;;1.45;;
46745;SDS011;32493;50.514;9.678;2023-11-19T01:54:50;2.45;;;1.40;;
46745;SDS011;32493;50.514;9.678;2023-11-19T01:56:57;2.42;;;1.63;;
46745;SDS011;32493;50.514;9.678;2023-11-19T01:59:07;3.05;;;1.90;;
46745;SDS011;32493;50.514;9.678;2023-11-19T02:01:21;3.25;;;1.42;;
46745;SDS011;32493;50.514;9.678;2023-11-19T02:03:32;2.97;;;1.85;;
46745;SDS011;32493;50.514;9.678;2023-11-19T02:05:41;2.38;;;1.90;;
46745;SDS011;32493;50.514;9.678;2023-11-19T02:09:54;2.90;;;2.00;;
46745;SDS011;32493;50.514;9.678;2023-11-19T02:14:08;1.80;;;1.27;;
46745;SDS011;32493;50.514;9.678;2023-11-19T02:16:17;2.65;;;1.83;;
46745;SDS011;32493;50.514;9.678;2023-11-19T02:18:39;2.72;;;1.80;;
46745;SDS011;32493;50.514;9.678;2023-11-19T02:20:47;2.70;;;1.98;;
46745;SDS011;32493;50.514;9.678;2023-11-19T02:23:00;2.45;;;1.85;;
46745;SDS011;32493;50.514;9.678;2023-11-19T02:25:04;3.70;;;2.05;;
46745;SDS011;32493;50.514;9.678;2023-11-19T02:27:14;2.55;;;2.00;;
46745;SDS011;32493;50.514;9.678;2023-11-19T02:29:34;4.20;;;2.20;;
46745;SDS011;32493;50.514;9.678;2023-11-19T02:31:42;2.67;;;1.92;;
46745;SDS011;32493;50.514;9.678;2023-11-19T02:33:48;4.70;;;2.17;;
46745;SDS011;32493;50.514;9.678;2023-11-19T02:35:55;2.50;;;1.88;;
46745;SDS011;32493;50.514;9.678;2023-11-19T02:38:01;2.78;;;2.08;;
46745;SDS011;32493;50.514;9.678;2023-11-19T02:40:06;2.20;;;2.00;;
46745;SDS011;32493;50.514;9.678;2023-11-19T02:42:16;2.97;;;2.17;;
46745;SDS011;32493;50.514;9.678;2023-11-19T02:44:24;2.60;;;2.08;;
46745;SDS011;32493;50.514;9.678;2023-11-19T02:46:34;2.70;;;2.03;;
46745;SDS011;32493;50.514;9.678;2023-11-19T02:48:40;2.88;;;2.28;;
46745;SDS011;32493;50.514;9.678;2023-11-19T02:50:47;2.58;;;2.22;;
46745;SDS011;32493;50.514;9.678;2023-11-19T02:52:54;2.75;;;2.03;;
46745;SDS011;32493;50.514;9.678;2023-11-19T02:55:03;2.95;;;2.08;;
46745;SDS011;32493;50.514;9.678;2023-11-19T02:57:17;2.30;;;1.98;;
46745;SDS011;32493;50.514;9.678;2023-11-19T02:59:42;4.38;;;2.25;;
46745;SDS011;32493;50.514;9.678;2023-11-19T03:01:53;2.00;;;1.70;;
46745;SDS011;32493;50.514;9.678;2023-11-19T03:03:59;3.83;;;2.20;;
46745;SDS011;32493;50.514;9.678;2023-11-19T03:06:06;3.63;;;2.28;;
46745;SDS011;32493;50.514;9.678;2023-11-19T03:08:12;3.90;;;2.50;;
46745;SDS011;32493;50.514;9.678;2023-11-19T03:10:26;3.05;;;2.47;;
46745;SDS011;32493;50.514;9.678;2023-11-19T03:12:36;3.38;;;2.25;;
46745;SDS011;32493;50.514;9.678;2023-11-19T03:14:42;3.28;;;2.30;;
46745;SDS011;32493;50.514;9.678;2023-11-19T03:19:02;2.45;;;2.10;;
46745;SDS011;32493;50.514;9.678;2023-11-19T03:21:12;2.78;;;2.33;;
46745;SDS011;32493;50.514;9.678;2023-11-19T03:23:15;2.85;;;2.22;;
46745;SDS011;32493;50.514;9.678;2023-11-19T03:25:21;3.17;;;2.28;;
46745;SDS011;32493;50.514;9.678;2023-11-19T03:27:35;2.33;;;1.83;;
46745;SDS011;32493;50.514;9.678;2023-11-19T03:29:41;2.70;;;2.22;;
46745;SDS011;32493;50.514;9.678;2023-11-19T03:31:46;6.68;;;2.13;;
46745;SDS011;32493;50.514;9.678;2023-11-19T03:33:58;2.78;;;2.17;;
46745;SDS011;32493;50.514;9.678;2023-11-19T03:36:11;3.30;;;1.85;;
46745;SDS011;32493;50.514;9.678;2023-11-19T03:38:18;2.90;;;2.03;;
46745;SDS011;32493;50.514;9.678;2023-11-19T03:40:26;2.17;;;1.80;;
46745;SDS011;32493;50.514;9.678;2023-11-19T03:42:35;3.50;;;1.95;;
46745;SDS011;32493;50.514;9.678;2023-11-19T03:44:41;5.40;;;2.17;;
46745;SDS011;32493;50.514;9.678;2023-11-19T03:46:47;3.88;;;2.33;;
46745;SDS011;32493;50.514;9.678;2023-11-19T03:48:57;3.78;;;1.92;;
46745;SDS011;32493;50.514;9.678;2023-11-19T03:51:07;2.78;;;1.95;;
46745;SDS011;32493;50.514;9.678;2023-11-19T03:53:16;2.72;;;1.70;;
46745;SDS011;32493;50.514;9.678;2023-11-19T03:55:22;1.35;;;1.25;;
46745;SDS011;32493;50.514;9.678;2023-11-19T03:57:27;3.53;;;1.65;;
46745;SDS011;32493;50.514;9.678;2023-11-19T03:59:40;2.88;;;2.55;;
46745;SDS011;32493;50.514;9.678;2023-11-19T04:01:49;1.08;;;0.80;;
46745;SDS011;32493;50.514;9.678;2023-11-19T04:03:58;2.20;;;1.73;;
46745;SDS011;32493;50.514;9.678;2023-11-19T04:06:04;4.10;;;1.55;;
46745;SDS011;32493;50.514;9.678;2023-11-19T04:08:11;1.80;;;1.42;;
46745;SDS011;32493;50.514;9.678;2023-11-19T04:10:22;1.92;;;1.60;;
46745;SDS011;32493;50.514;9.678;2023-11-19T04:12:30;1.95;;;1.50;;
46745;SDS011;32493;50.514;9.678;2023-11-19T04:14:36;2.13;;;1.58;;
46745;SDS011;32493;50.514;9.678;2023-11-19T04:16:42;1.92;;;1.40;;
46745;SDS011;32493;50.514;9.678;2023-11-19T04:18:49;2.72;;;1.77;;
46745;SDS011;32493;50.514;9.678;2023-11-19T04:20:58;2.13;;;1.77;;
46745;SDS011;32493;50.514;9.678;2023-11-19T04:23:08;2.40;;;1.60;;
46745;SDS011;32493;50.514;9.678;2023-11-19T04:25:22;2.60;;;1.30;;
46745;SDS011;32493;50.514;9.678;2023-11-19T04:27:28;1.70;;;1.27;;
46745;SDS011;32493;50.514;9.678;2023-11-19T04:29:34;2.38;;;1.50;;
46745;SDS011;32493;50.514;9.678;2023-11-19T04:31:40;1.35;;;0.85;;
46745;SDS011;32493;50.514;9.678;2023-11-19T04:33:46;2.10;;;1.25;;
46745;SDS011;32493;50.514;9.678;2023-11-19T04:35:56;1.75;;;1.30;;
46745;SDS011;32493;50.514;9.678;2023-11-19T04:38:04;1.52;;;1.27;;
46745;SDS011;32493;50.514;9.678;2023-11-19T04:40:12;2.03;;;1.17;;
46745;SDS011;32493;50.514;9.678;2023-11-19T04:42:23;1.90;;;1.40;;
46745;SDS011;32493;50.514;9.678;2023-11-19T04:44:28;4.15;;;1.20;;
46745;SDS011;32493;50.514;9.678;2023-11-19T04:46:31;1.50;;;1.00;;
46745;SDS011;32493;50.514;9.678;2023-11-19T04:48:37;1.00;;;0.82;;
46745;SDS011;32493;50.514;9.678;2023-11-19T04:50:47;2.03;;;1.20;;
46745;SDS011;32493;50.514;9.678;2023-11-19T04:52:58;1.08;;;0.70;;
46745;SDS011;32493;50.514;9.678;2023-11-19T04:55:05;2.13;;;1.00;;
46745;SDS011;32493;50.514;9.678;2023-11-19T04:57:13;1.17;;;0.80;;
46745;SDS011;32493;50.514;9.678;2023-11-19T04:59:41;2.08;;;1.15;;
46745;SDS011;32493;50.514;9.678;2023-11-19T05:01:48;1.30;;;1.05;;
46745;SDS011;32493;50.514;9.678;2023-11-19T05:03:59;1.77;;;1.27;;
46745;SDS011;32493;50.514;9.678;2023-11-19T05:06:06;1.45;;;0.90;;
46745;SDS011;32493;50.514;9.678;2023-11-19T05:08:15;2.75;;;1.08;;
46745;SDS011;32493;50.514;9.678;2023-11-19T05:10:34;1.98;;;1.25;;
46745;SDS011;32493;50.514;9.678;2023-11-19T05:12:45;2.85;;;1.52;;
46745;SDS011;32493;50.514;9.678;2023-11-19T05:14:51;1.30;;;0.98;;
46745;SDS011;32493;50.514;9.678;2023-11-19T05:16:57;2.17;;;1.60;;
46745;SDS011;32493;50.514;9.678;2023-11-19T05:19:07;2.60;;;1.33;;
46745;SDS011;32493;50.514;9.678;2023-11-19T05:21:13;2.22;;;1.30;;
46745;SDS011;32493;50.514;9.678;2023-11-19T05:23:22;2.28;;;1.63;;
46745;SDS011;32493;50.514;9.678;2023-11-19T05:25:28;2.33;;;1.70;;
46745;SDS011;32493;50.514;9.678;2023-11-19T05:27:35;3.95;;;2.00;;
46745;SDS011;32493;50.514;9.678;2023-11-19T05:29:40;2.10;;;1.70;;
46745;SDS011;32493;50.514;9.678;2023-11-19T05:31:48;3.55;;;1.63;;
46745;SDS011;32493;50.514;9.678;2023-11-19T05:33:57;2.28;;;1.70;;
46745;SDS011;32493;50.514;9.678;2023-11-19T05:36:04;2.13;;;1.70;;
46745;SDS011;32493;50.514;9.678;2023-11-19T05:38:10;2.00;;;1.50;;
46745;SDS011;32493;50.514;9.678;2023-11-19T05:40:31;2.92;;;2.00;;
46745;SDS011;32493;50.514;9.678;2023-11-19T05:42:39;2.10;;;1.70;;
46745;SDS011;32493;50.514;9.678;2023-11-19T05:44:46;2.85;;;2.13;;
46745;SDS011;32493;50.514;9.678;2023-11-19T05:46:52;2.25;;;1.77;;
46745;SDS011;32493;50.514;9.678;2023-11-19T05:49:01;2.55;;;1.77;;
46745;SDS011;32493;50.514;9.678;2023-11-19T05:51:13;3.25;;;1.98;;
46745;SDS011;32493;50.514;9.678;2023-11-19T05:53:19;4.75;;;2.17;;
46745;SDS011;32493;50.514;9.678;2023-11-19T05:55:29;2.75;;;2.10;;
46745;SDS011;32493;50.514;9.678;2023-11-19T05:57:32;2.50;;;2.28;;
46745;SDS011;32493;50.514;9.678;2023-11-19T05:59:48;4.35;;;2.17;;
46745;SDS011;32493;50.514;9.678;2023-11-19T06:01:57;5.05;;;2.92;;
46745;SDS011;32493;50.514;9.678;2023-11-19T06:04:07;3.45;;;2.88;;
46745;SDS011;32493;50.514;9.678;2023-11-19T06:06:13;3.10;;;2.78;;
46745;SDS011;32493;50.514;9.678;2023-11-19T06:08:16;6.38;;;3.25;;
46745;SDS011;32493;50.514;9.678;2023-11-19T06:10:27;4.80;;;3.53;;
46745;SDS011;32493;50.514;9.678;2023-11-19T06:12:38;3.17;;;2.60;;
46745;SDS011;32493;50.514;9.678;2023-11-19T06:14:44;6.43;;;3.03;;
46745;SDS011;32493;50.514;9.678;2023-11-19T06:16:49;3.22;;;2.90;;
46745;SDS011;32493;50.514;9.678;2023-11-19T06:18:57;6.13;;;3.25;;
46745;SDS011;32493;50.514;9.678;2023-11-19T06:21:05;4.50;;;3.05;;
46745;SDS011;32493;50.514;9.678;2023-11-19T06:23:10;3.72;;;2.45;;
46745;SDS011;32493;50.514;9.678;2023-11-19T06:25:16;3.47;;;2.33;;
46745;SDS011;32493;50.514;9.678;2023-11-19T06:27:23;4.93;;;2.60;;
46745;SDS011;32493;50.514;9.678;2023-11-19T06:29:29;2.65;;;2.13;;
46745;SDS011;32493;50.514;9.678;2023-11-19T06:31:32;2.97;;;2.42;;
46745;SDS011;32493;50.514;9.678;2023-11-19T06:33:46;2.08;;;1.83;;
46745;SDS011;32493;50.514;9.678;2023-11-19T06:35:52;1.10;;;1.00;;
46745;SDS011;32493;50.514;9.678;2023-11-19T06:37:56;2.00;;;1.40;;
46745;SDS011;32493;50.514;9.678;2023-11-19T06:40:08;2.95;;;1.70;;
46745;SDS011;32493;50.514;9.678;2023-11-19T06:42:14;2.13;;;1.80;;
46745;SDS011;32493;50.514;9.678;2023-11-19T06:44:22;2.25;;;2.05;;
46745;SDS011;32493;50.514;9.678;2023-11-19T06:46:29;2.35;;;1.80;;
46745;SDS011;32493;50.514;9.678;2023-11-19T06:48:34;2.08;;;1.80;;
46745;SDS011;32493;50.514;9.678;2023-11-19T06:50:37;2.70;;;2.03;;
46745;SDS011;32493;50.514;9.678;2023-11-19T06:52:45;2.00;;;1.80;;
46745;SDS011;32493;50.514;9.678;2023-11-19T06:54:55;1.65;;;1.45;;
46745;SDS011;32493;50.514;9.678;2023-11-19T06:57:10;3.03;;;1.52;;
46745;SDS011;32493;50.514;9.678;2023-11-19T06:59:18;2.05;;;1.60;;
46745;SDS011;32493;50.514;9.678;2023-11-19T07:01:35;4.57;;;0.90;;
46745;SDS011;32493;50.514;9.678;2023-11-19T07:03:41;1.65;;;1.10;;
46745;SDS011;32493;50.514;9.678;2023-11-19T07:05:46;2.40;;;1.00;;
46745;SDS011;32493;50.514;9.678;2023-11-19T07:07:52;2.08;;;1.20;;
46745;SDS011;32493;50.514;9.678;2023-11-19T07:10:09;3.17;;;1.30;;
46745;SDS011;32493;50.514;9.678;2023-11-19T07:12:17;1.30;;;1.20;;
46745;SDS011;32493;50.514;9.678;2023-11-19T07:14:27;1.52;;;1.00;;
46745;SDS011;32493;50.514;9.678;2023-11-19T07:16:33;1.92;;;1.10;;
46745;SDS011;32493;50.514;9.678;2023-11-19T07:18:40;0.75;;;0.40;;
46745;SDS011;32493;50.514;9.678;2023-11-19T07:20:49;1.50;;;0.70;;
46745;SDS011;32493;50.514;9.678;2023-11-19T07:22:56;2.53;;;0.75;;
46745;SDS011;32493;50.514;9.678;2023-11-19T07:25:02;1.92;;;0.60;;
46745;SDS011;32493;50.514;9.678;2023-11-19T07:27:12;2.92;;;0.60;;
46745;SDS011;32493;50.514;9.678;2023-11-19T07:29:22;2.85;;;0.65;;
46745;SDS011;32493;50.514;9.678;2023-11-19T07:31:33;2.28;;;0.50;;
46745;SDS011;32493;50.514;9.678;2023-11-19T07:33:39;4.00;;;0.68;;
46745;SDS011;32493;50.514;9.678;2023-11-19T07:35:46;2.65;;;0.60;;
46745;SDS011;32493;50.514;9.678;2023-11-19T07:37:52;1.77;;;0.52;;
46745;SDS011;32493;50.514;9.678;2023-11-19T07:40:02;1.48;;;0.52;;
46745;SDS011;32493;50.514;9.678;2023-11-19T07:42:10;2.60;;;0.45;;
46745;SDS011;32493;50.514;9.678;2023-11-19T07:44:16;2.42;;;0.98;;
46745;SDS011;32493;50.514;9.678;2023-11-19T07:46:23;3.17;;;0.90;;
46745;SDS011;32493;50.514;9.678;2023-11-19T07:48:33;3.03;;;0.85;;
46745;SDS011;32493;50.514;9.678;2023-11-19T07:50:39;2.88;;;0.82;;
46745;SDS011;32493;50.514;9.678;2023-11-19T07:52:45;1.85;;;0.63;;
46745;SDS011;32493;50.514;9.678;2023-11-19T07:54:54;5.27;;;1.00;;
46745;SDS011;32493;50.514;9.678;2023-11-19T07:57:06;4.03;;;0.80;;
46745;SDS011;32493;50.514;9.678;2023-11-19T07:59:14;2.75;;;0.95;;
46745;SDS011;32493;50.514;9.678;2023-11-19T08:01:31;1.02;;;0.77;;
46745;SDS011;32493;50.514;9.678;2023-11-19T08:03:40;1.40;;;0.82;;
46745;SDS011;32493;50.514;9.678;2023-11-19T08:05:49;3.55;;;0.85;;
46745;SDS011;32493;50.514;9.678;2023-11-19T08:07:55;4.50;;;1.38;;
46745;SDS011;32493;50.514;9.678;2023-11-19T08:09:58;2.30;;;0.90;;
46745;SDS011;32493;50.514;9.678;2023-11-19T08:12:05;1.58;;;0.77;;
46745;SDS011;32493;50.514;9.678;2023-11-19T08:14:13;1.83;;;0.90;;
46745;SDS011;32493;50.514;9.678;2023-11-19T08:16:25;5.85;;;1.00;;
46745;SDS011;32493;50.514;9.678;2023-11-19T08:18:30;6.47;;;1.00;;
46745;SDS011;32493;50.514;9.678;2023-11-19T08:20:39;1.20;;;0.50;;
46745;SDS011;32493;50.514;9.678;2023-11-19T08:22:46;3.15;;;1.02;;
46745;SDS011;32493;50.514;9.678;2023-11-19T08:24:53;1.63;;;0.90;;
46745;SDS011;32493;50.514;9.678;2023-11-19T08:26:59;2.70;;;0.95;;
46745;SDS011;32493;50.514;9.678;2023-11-19T08:29:08;2.45;;;0.90;;
46745;SDS011;32493;50.514;9.678;2023-11-19T08:31:17;4.80;;;1.40;;
46745;SDS011;32493;50.514;9.678;2023-11-19T08:33:23;4.75;;;1.48;;
46745;SDS011;32493;50.514;9.678;2023-11-19T08:35:26;4.22;;;1.80;;
46745;SDS011;32493;50.514;9.678;2023-11-19T08:37:34;5.70;;;1.98;;
46745;SDS011;32493;50.514;9.678;2023-11-19T08:39:56;5.28;;;2.22;;
46745;SDS011;32493;50.514;9.678;2023-11-19T08:42:02;3.13;;;1.70;;
46745;SDS011;32493;50.514;9.678;2023-11-19T08:44:08;3.28;;;1.73;;
46745;SDS011;32493;50.514;9.678;2023-11-19T08:46:16;4.85;;;1.80;;
46745;SDS011;32493;50.514;9.678;2023-11-19T08:48:22;3.85;;;1.50;;
46745;SDS011;32493;50.514;9.678;2023-11-19T08:50:28;5.30;;;1.50;;
46745;SDS011;32493;50.514;9.678;2023-11-19T08:52:38;3.80;;;0.90;;
46745;SDS011;32493;50.514;9.678;2023-11-19T08:54:47;4.30;;;0.90;;
46745;SDS011;32493;50.514;9.678;2023-11-19T08:56:53;4.30;;;0.95;;
46745;SDS011;32493;50.514;9.678;2023-11-19T08:59:01;3.42;;;1.13;;
46745;SDS011;32493;50.514;9.678;2023-11-19T09:01:12;2.30;;;1.02;;
46745;SDS011;32493;50.514;9.678;2023-11-19T09:03:17;1.83;;;0.90;;
46745;SDS011;32493;50.514;9.678;2023-11-19T09:05:23;1.73;;;0.77;;
46745;SDS011;32493;50.514;9.678;2023-11-19T09:07:29;6.13;;;1.50;;
46745;SDS011;32493;50.514;9.678;2023-11-19T09:09:38;3.17;;;0.90;;
46745;SDS011;32493;50.514;9.678;2023-11-19T09:11:49;2.58;;;1.05;;
46745;SDS011;32493;50.514;9.678;2023-11-19T09:13:58;4.85;;;1.08;;
46745;SDS011;32493;50.514;9.678;2023-11-19T09:16:05;3.58;;;0.80;;
46745;SDS011;32493;50.514;9.678;2023-11-19T09:18:11;9.63;;;1.45;;
46745;SDS011;32493;50.514;9.678;2023-11-19T09:20:18;4.88;;;0.70;;
46745;SDS011;32493;50.514;9.678;2023-11-19T09:22:41;2.95;;;1.00;;
46745;SDS011;32493;50.514;9.678;2023-11-19T09:24:49;3.53;;;0.80;;
46745;SDS011;32493;50.514;9.678;2023-11-19T09:26:55;2.90;;;0.80;;
46745;SDS011;32493;50.514;9.678;2023-11-19T09:29:03;5.65;;;1.35;;
46745;SDS011;32493;50.514;9.678;2023-11-19T09:31:14;7.93;;;1.20;;
46745;SDS011;32493;50.514;9.678;2023-11-19T09:33:20;2.83;;;0.75;;
46745;SDS011;32493;50.514;9.678;2023-11-19T09:35:25;4.30;;;1.20;;
46745;SDS011;32493;50.514;9.678;2023-11-19T09:37:31;6.30;;;1.15;;
46745;SDS011;32493;50.514;9.678;2023-11-19T09:39:36;4.10;;;1.10;;
46745;SDS011;32493;50.514;9.678;2023-11-19T09:41:49;2.63;;;0.98;;
46745;SDS011;32493;50.514;9.678;2023-11-19T09:43:57;6.22;;;1.13;;
46745;SDS011;32493;50.514;9.678;2023-11-19T09:46:04;3.08;;;0.90;;
46745;SDS011;32493;50.514;9.678;2023-11-19T09:48:13;3.42;;;1.02;;
46745;SDS011;32493;50.514;9.678;2023-11-19T09:50:25;7.45;;;1.77;;
46745;SDS011;32493;50.514;9.678;2023-11-19T09:52:31;8.18;;;1.15;;
46745;SDS011;32493;50.514;9.678;2023-11-19T09:54:36;5.18;;;0.95;;
46745;SDS011;32493;50.514;9.678;2023-11-19T09:56:42;4.00;;;0.90;;
46745;SDS011;32493;50.514;9.678;2023-11-19T09:58:52;5.35;;;1.40;;
46745;SDS011;32493;50.514;9.678;2023-11-19T10:00:57;9.07;;;1.92;;
46745;SDS011;32493;50.514;9.678;2023-11-19T10:03:21;7.45;;;1.13;;
46745;SDS011;32493;50.514;9.678;2023-11-19T10:05:33;4.25;;;1.08;;
46745;SDS011;32493;50.514;9.678;2023-11-19T10:07:45;3.45;;;1.00;;
46745;SDS011;32493;50.514;9.678;2023-11-19T10:09:51;6.55;;;1.60;;
46745;SDS011;32493;50.514;9.678;2023-11-19T10:12:00;6.13;;;1.20;;
46745;SDS011;32493;50.514;9.678;2023-11-19T10:14:05;5.68;;;1.10;;
46745;SDS011;32493;50.514;9.678;2023-11-19T10:16:09;5.95;;;1.10;;
46745;SDS011;32493;50.514;9.678;2023-11-19T10:18:20;8.10;;;1.40;;
46745;SDS011;32493;50.514;9.678;2023-11-19T10:20:40;4.10;;;0.80;;
46745;SDS011;32493;50.514;9.678;2023-11-19T10:22:52;5.55;;;0.90;;
46745;SDS011;32493;50.514;9.678;2023-11-19T10:24:58;5.25;;;1.23;;
46745;SDS011;32493;50.514;9.678;2023-11-19T10:27:09;4.82;;;0.77;;
46745;SDS011;32493;50.514;9.678;2023-11-19T10:29:20;7.63;;;1.52;;
46745;SDS011;32493;50.514;9.678;2023-11-19T10:31:31;4.28;;;0.90;;
46745;SDS011;32493;50.514;9.678;2023-11-19T10:33:37;5.38;;;1.50;;
46745;SDS011;32493;50.514;9.678;2023-11-19T10:35:50;3.92;;;1.00;;
46745;SDS011;32493;50.514;9.678;2023-11-19T10:38:01;5.45;;;1.33;;
46745;SDS011;32493;50.514;9.678;2023-11-19T10:40:20;8.15;;;1.20;;
46745;SDS011;32493;50.514;9.678;2023-11-19T10:42:38;9.65;;;1.15;;
46745;SDS011;32493;50.514;9.678;2023-11-19T10:44:45;7.50;;;1.30;;
46745;SDS011;32493;50.514;9.678;2023-11-19T10:46:52;5.38;;;0.80;;
46745;SDS011;32493;50.514;9.678;2023-11-19T10:49:04;8.80;;;1.90;;
46745;SDS011;32493;50.514;9.678;2023-11-19T10:51:18;9.45;;;1.15;;
46745;SDS011;32493;50.514;9.678;2023-11-19T10:53:26;7.97;;;1.35;;
46745;SDS011;32493;50.514;9.678;2023-11-19T10:55:35;4.90;;;1.23;;
46745;SDS011;32493;50.514;9.678;2023-11-19T10:57:44;5.27;;;1.20;;
46745;SDS011;32493;50.514;9.678;2023-11-19T10:59:55;7.93;;;1.40;;
46745;SDS011;32493;50.514;9.678;2023-11-19T11:02:07;4.95;;;0.93;;
46745;SDS011;32493;50.514;9.678;2023-11-19T11:04:24;4.80;;;1.15;;
46745;SDS011;32493;50.514;9.678;2023-11-19T11:06:32;10.38;;;1.60;;
46745;SDS011;32493;50.514;9.678;2023-11-19T11:08:39;7.68;;;1.60;;
46745;SDS011;32493;50.514;9.678;2023-11-19T11:10:47;6.90;;;1.08;;
46745;SDS011;32493;50.514;9.678;2023-11-19T11:13:00;6.68;;;1.67;;
46745;SDS011;32493;50.514;9.678;2023-11-19T11:15:10;18.70;;;1.75;;
46745;SDS011;32493;50.514;9.678;2023-11-19T11:17:15;11.48;;;1.65;;
46745;SDS011;32493;50.514;9.678;2023-11-19T11:19:30;8.68;;;2.05;;
46745;SDS011;32493;50.514;9.678;2023-11-19T11:21:43;6.65;;;1.33;;
46745;SDS011;32493;50.514;9.678;2023-11-19T11:24:03;7.38;;;1.75;;
46745;SDS011;32493;50.514;9.678;2023-11-19T11:29:39;8.98;;;1.30;;
46745;SDS011;32493;50.514;9.678;2023-11-19T11:31:54;14.23;;;2.00;;
46745;SDS011;32493;50.514;9.678;2023-11-19T11:34:15;7.10;;;1.80;;
46745;SDS011;32493;50.514;9.678;2023-11-19T11:36:37;9.47;;;1.73;;
46745;SDS011;32493;50.514;9.678;2023-11-19T11:38:54;15.65;;;2.20;;
46745;SDS011;32493;50.514;9.678;2023-11-19T11:41:18;14.95;;;2.22;;
46745;SDS011;32493;50.514;9.678;2023-11-19T11:43:45;13.13;;;1.70;;
46745;SDS011;32493;50.514;9.678;2023-11-19T11:45:56;12.10;;;1.98;;
46745;SDS011;32493;50.514;9.678;2023-11-19T11:48:04;6.82;;;0.95;;
46745;SDS011;32493;50.514;9.678;2023-11-19T11:50:18;7.90;;;1.30;;
46745;SDS011;32493;50.514;9.678;2023-11-19T11:52:29;14.98;;;2.58;;
46745;SDS011;32493;50.514;9.678;2023-11-19T11:54:35;12.23;;;2.70;;
46745;SDS011;32493;50.514;9.678;2023-11-19T11:56:41;7.47;;;1.75;;
46745;SDS011;32493;50.514;9.678;2023-11-19T11:59:07;8.80;;;1.90;;
46745;SDS011;32493;50.514;9.678;2023-11-19T12:01:26;8.38;;;1.35;;
46745;SDS011;32493;50.514;9.678;2023-11-19T12:03:34;14.98;;;2.67;;
46745;SDS011;32493;50.514;9.678;2023-11-19T12:05:44;10.15;;;1.77;;
46745;SDS011;32493;50.514;9.678;2023-11-19T12:07:54;16.73;;;2.40;;
46745;SDS011;32493;50.514;9.678;2023-11-19T12:10:05;13.98;;;1.80;;
46745;SDS011;32493;50.514;9.678;2023-11-19T12:12:23;9.63;;;1.38;;
46745;SDS011;32493;50.514;9.678;2023-11-19T12:17:15;13.10;;;2.15;;
46745;SDS011;32493;50.514;9.678;2023-11-19T12:19:49;22.27;;;2.47;;
46745;SDS011;32493;50.514;9.678;2023-11-19T12:21:55;9.13;;;2.25;;
46745;SDS011;32493;50.514;9.678;2023-11-19T12:24:05;10.48;;;2.22;;
46745;SDS011;32493;50.514;9.678;2023-11-19T12:29:08;10.73;;;2.03;;
46745;SDS011;32493;50.514;9.678;2023-11-19T12:31:26;10.90;;;2.20;;
46745;SDS011;32493;50.514;9.678;2023-11-19T12:33:35;7.80;;;1.33;;
46745;SDS011;32493;50.514;9.678;2023-11-19T12:35:41;10.75;;;1.83;;
46745;SDS011;32493;50.514;9.678;2023-11-19T12:39:55;11.33;;;2.90;;
46745;SDS011;32493;50.514;9.678;2023-11-19T12:42:02;10.23;;;1.53;;
46745;SDS011;32493;50.514;9.678;2023-11-19T12:44:15;12.85;;;2.42;;
46745;SDS011;32493;50.514;9.678;2023-11-19T12:46:24;14.10;;;2.42;;
46745;SDS011;32493;50.514;9.678;2023-11-19T12:48:31;12.18;;;2.25;;
46745;SDS011;32493;50.514;9.678;2023-11-19T12:51:05;12.63;;;2.00;;
46745;SDS011;32493;50.514;9.678;2023-11-19T12:53:16;11.35;;;1.88;;
46745;SDS011;32493;50.514;9.678;2023-11-19T12:55:26;11.73;;;2.00;;
46745;SDS011;32493;50.514;9.678;2023-11-19T12:57:38;7.40;;;1.20;;
46745;SDS011;32493;50.514;9.678;2023-11-19T12:59:54;14.15;;;2.60;;
46745;SDS011;32493;50.514;9.678;2023-11-19T13:02:00;9.63;;;1.90;;
46745;SDS011;32493;50.514;9.678;2023-11-19T13:04:19;10.40;;;1.75;;
46745;SDS011;32493;50.514;9.678;2023-11-19T13:06:30;8.60;;;1.85;;
46745;SDS011;32493;50.514;9.678;2023-11-19T13:08:37;10.30;;;2.13;;
46745;SDS011;32493;50.514;9.678;2023-11-19T13:10:50;13.50;;;2.25;;
46745;SDS011;32493;50.514;9.678;2023-11-19T13:13:03;12.73;;;2.25;;
46745;SDS011;32493;50.514;9.678;2023-11-19T13:15:22;11.73;;;2.08;;